Time;durP1;ratioP1;P1;durP2;ratioP2;P2;SDS_P1;SDS_P2;PMS_P1;PMS_P2;Temp;Humidity;BMP_temperature;BMP_pressure;BME280_temperature;BME280_humidity;BME280_pressure;Samples;Min_cycle;Max_cycle;Signal;HPM_P1;HPM_P2
2021/08/16 00:02:27;;;;;;;13.30;9.60;;;;;;;25.36;100.00;95932.09;5004970;28;20077;-54
2021/08/16 00:04:56;;;;;;;14.30;9.43;;;;;;;24.70;100.00;95924.69;5011838;28;20068;-54
2021/08/16 00:07:25;;;;;;;12.48;8.90;;;;;;;25.25;100.00;95921.16;5025551;28;20061;-53
2021/08/16 00:09:53;;;;;;;13.90;8.82;;;;;;;25.12;100.00;95904.50;5012955;28;20074;-51
2021/08/16 00:12:21;;;;;;;13.73;8.73;;;;;;;24.91;100.00;95901.50;5005485;28;20077;-53
2021/08/16 00:14:50;;;;;;;15.60;8.45;;;;;;;25.60;100.00;95892.13;5012695;28;20077;-50
2021/08/16 00:17:20;;;;;;;14.32;9.10;;;;;;;25.43;100.00;95884.13;5003816;28;20527;-54
2021/08/16 00:19:48;;;;;;;13.75;9.35;;;;;;;25.97;100.00;95882.28;5008134;28;20081;-56
2021/08/16 00:22:17;;;;;;;14.77;9.23;;;;;;;25.45;100.00;95892.78;5009621;28;20570;-50
2021/08/16 00:24:45;;;;;;;12.45;9.57;;;;;;;25.26;100.00;95878.81;4993289;28;20062;-50
2021/08/16 00:27:14;;;;;;;13.60;9.57;;;;;;;24.98;100.00;95880.59;5001311;28;20062;-52
2021/08/16 00:29:42;;;;;;;16.20;9.98;;;;;;;25.05;100.00;95875.00;5005687;28;20712;-54
2021/08/16 00:32:10;;;;;;;12.20;9.82;;;;;;;24.68;100.00;95866.69;5007451;28;20076;-53
2021/08/16 00:34:40;;;;;;;15.82;9.68;;;;;;;25.10;100.00;95873.19;5010172;28;20088;-49
2021/08/16 00:37:09;;;;;;;11.82;9.13;;;;;;;24.86;100.00;95878.00;5008130;28;20061;-53
2021/08/16 00:39:37;;;;;;;14.48;9.63;;;;;;;25.32;100.00;95872.38;5006552;28;20068;-52
2021/08/16 00:42:12;;;;;;;13.40;8.82;;;;;;;25.16;100.00;95873.28;5009831;28;20061;-53
2021/08/16 00:44:41;;;;;;;16.75;9.60;;;;;;;24.89;100.00;95883.97;5000934;28;20057;-52
2021/08/16 00:47:10;;;;;;;12.52;8.70;;;;;;;25.32;100.00;95880.47;5007866;28;20073;-50
2021/08/16 00:49:40;;;;;;;17.40;9.93;;;;;;;25.64;100.00;95886.00;5015695;28;20085;-49
2021/08/16 00:52:09;;;;;;;14.32;9.82;;;;;;;25.74;100.00;95887.97;5008603;28;20092;-55
2021/08/16 00:54:38;;;;;;;17.50;9.68;;;;;;;25.19;100.00;95881.69;5005845;28;20076;-55
2021/08/16 00:57:07;;;;;;;14.63;9.00;;;;;;;25.67;100.00;95885.50;5014067;28;20067;-51
2021/08/16 00:59:35;;;;;;;15.93;9.68;;;;;;;25.55;100.00;95891.00;5009414;28;20069;-55
2021/08/16 01:02:04;;;;;;;18.90;10.43;;;;;;;25.80;100.00;95887.78;5009353;28;20081;-51
2021/08/16 01:04:33;;;;;;;15.70;10.57;;;;;;;24.92;100.00;95886.16;5010031;28;20465;-52
2021/08/16 01:07:03;;;;;;;15.13;9.73;;;;;;;25.33;100.00;95893.75;4997682;28;20070;-55
2021/08/16 01:09:32;;;;;;;;;;;;;;;25.43;100.00;95898.44;5001329;28;20463;-55
2021/08/16 01:12:01;;;;;;;15.38;9.63;;;;;;;24.77;100.00;95890.25;5004339;28;20465;-54
2021/08/16 01:14:29;;;;;;;19.25;10.65;;;;;;;24.21;100.00;95883.19;5008576;28;20101;-52
2021/08/16 01:16:58;;;;;;;15.68;10.63;;;;;;;25.05;100.00;95889.31;5010075;28;20081;-54
2021/08/16 01:19:27;;;;;;;16.55;9.93;;;;;;;25.27;100.00;95892.03;5010794;28;20042;-53
2021/08/16 01:21:56;;;;;;;13.88;9.57;;;;;;;25.34;100.00;95886.47;5009557;28;20062;-57
2021/08/16 01:24:26;;;;;;;15.85;10.10;;;;;;;24.80;100.00;95878.97;5010957;28;20065;-55
2021/08/16 01:26:56;;;;;;;22.42;10.38;;;;;;;25.49;100.00;95881.22;5007498;28;20543;-55
2021/08/16 01:29:24;;;;;;;15.70;9.85;;;;;;;25.65;100.00;95881.41;5008938;28;20084;-53
2021/08/16 01:31:58;;;;;;;17.05;10.38;;;;;;;25.49;100.00;95885.81;5014856;28;20089;-56
2021/08/16 01:34:26;;;;;;;14.88;9.77;;;;;;;25.07;100.00;95903.34;5013978;28;20145;-51
2021/08/16 01:36:55;;;;;;;13.10;10.02;;;;;;;24.78;100.00;95902.72;5007889;28;20544;-54
2021/08/16 01:39:23;;;;;;;18.95;10.35;;;;;;;25.19;100.00;95891.66;5013901;28;20073;-54
2021/08/16 01:41:52;;;;;;;15.20;9.38;;;;;;;24.72;100.00;95895.59;5011356;28;20471;-56
2021/08/16 01:44:24;;;;;;;16.75;9.20;;;;;;;24.55;100.00;95898.31;5012394;28;20068;-56
2021/08/16 01:46:53;;;;;;;12.40;8.77;;;;;;;24.04;100.00;95913.63;5010672;28;20074;-54
2021/08/16 01:49:21;;;;;;;13.65;8.38;;;;;;;24.19;100.00;95912.25;5015382;28;20078;-56
2021/08/16 01:51:50;;;;;;;12.55;8.43;;;;;;;24.63;100.00;95913.25;5006711;28;20641;-48
2021/08/16 01:54:19;;;;;;;11.32;8.50;;;;;;;24.32;100.00;95911.94;5006295;28;20084;-57
2021/08/16 01:56:49;;;;;;;16.60;8.15;;;;;;;24.11;100.00;95916.16;5006092;28;20037;-55
2021/08/16 01:59:17;;;;;;;16.55;8.13;;;;;;;23.97;100.00;95906.75;5008007;28;20578;-53
2021/08/16 02:01:47;;;;;;;13.52;7.47;;;;;;;24.24;100.00;95883.50;5006947;28;20092;-48
2021/08/16 02:04:16;;;;;;;12.02;7.57;;;;;;;24.57;100.00;95898.06;5006848;28;20080;-56
2021/08/16 02:06:45;;;;;;;11.27;7.00;;;;;;;24.37;100.00;95893.16;5012172;28;20061;-54
2021/08/16 02:09:13;;;;;;;11.02;6.05;;;;;;;24.86;100.00;95880.69;5007548;28;20061;-54
2021/08/16 02:11:42;;;;;;;10.05;6.32;;;;;;;24.95;100.00;95873.00;5005858;28;20065;-57
2021/08/16 02:14:11;;;;;;;12.18;6.75;;;;;;;24.74;100.00;95873.75;5008715;28;20091;-54
2021/08/16 02:16:40;;;;;;;9.65;6.07;;;;;;;24.67;100.00;95871.25;5014692;28;20092;-53
2021/08/16 02:19:10;;;;;;;13.45;5.93;;;;;;;25.38;100.00;95863.28;5006023;28;20193;-49
2021/08/16 02:21:39;;;;;;;9.13;6.30;;;;;;;25.14;100.00;95856.53;5010769;28;20475;-51
2021/08/16 02:24:07;;;;;;;9.90;6.22;;;;;;;25.01;100.00;95853.09;5012407;28;20088;-49
2021/08/16 02:26:35;;;;;;;9.85;5.60;;;;;;;25.61;100.00;95843.28;5005882;28;20069;-54
2021/08/16 02:29:04;;;;;;;10.32;6.20;;;;;;;25.38;100.00;95830.91;5005223;28;20088;-52
2021/08/16 02:31:33;;;;;;;8.45;5.72;;;;;;;25.21;100.00;95847.16;5011428;28;20096;-52
2021/08/16 02:34:01;;;;;;;11.93;5.95;;;;;;;25.12;100.00;95835.22;5009618;28;20073;-48
2021/08/16 02:36:31;;;;;;;8.85;5.65;;;;;;;25.15;100.00;95828.47;5010567;28;20073;-48
2021/08/16 02:39:00;;;;;;;9.32;5.97;;;;;;;25.09;100.00;95825.69;5008084;28;20613;-52
2021/08/16 02:41:29;;;;;;;10.77;6.00;;;;;;;25.10;100.00;95830.00;5006075;28;20643;-49
2021/08/16 02:43:57;;;;;;;12.20;6.00;;;;;;;25.03;100.00;95828.56;5012003;28;20739;-52
2021/08/16 02:46:25;;;;;;;8.95;6.00;;;;;;;25.65;100.00;95844.41;5006836;28;20066;-54
2021/08/16 02:48:54;;;;;;;11.30;7.07;;;;;;;25.85;100.00;95840.31;5006425;28;20409;-54
2021/08/16 02:51:23;;;;;;;11.63;6.43;;;;;;;25.45;100.00;95846.91;5014129;28;20073;-50
2021/08/16 02:53:53;;;;;;;12.73;7.22;;;;;;;25.36;100.00;95840.31;5010863;28;20535;-54
2021/08/16 02:56:21;;;;;;;10.32;6.60;;;;;;;25.34;100.00;95851.38;5006300;28;20069;-52
2021/08/16 02:58:50;;;;;;;12.63;7.03;;;;;;;25.62;100.00;95854.91;5012090;28;20202;-50
2021/08/16 03:01:18;;;;;;;10.43;7.10;;;;;;;25.74;100.00;95850.16;5008461;28;20085;-53
2021/08/16 03:03:47;;;;;;;12.77;7.57;;;;;;;25.53;100.00;95860.78;5008323;28;20088;-48
2021/08/16 03:06:15;;;;;;;14.00;7.32;;;;;;;25.29;100.00;95876.44;5007822;28;20069;-49
2021/08/16 03:08:44;;;;;;;14.30;6.97;;;;;;;25.33;100.00;95877.56;5007215;28;20065;-51
2021/08/16 03:11:14;;;;;;;12.75;7.40;;;;;;;25.10;100.00;95875.88;5006885;28;20072;-52
2021/08/16 03:13:42;;;;;;;;;;;;;;;25.45;100.00;95874.69;5011071;28;20095;-50
2021/08/16 03:16:10;;;;;;;13.48;7.38;;;;;;;25.32;100.00;95875.91;5008196;28;19961;-49
2021/08/16 03:18:39;;;;;;;12.90;7.22;;;;;;;25.42;100.00;95872.50;5012202;28;20061;-54
2021/08/16 03:21:08;;;;;;;13.52;7.65;;;;;;;25.34;100.00;95857.56;5003092;28;20088;-53
2021/08/16 03:23:36;;;;;;;12.15;7.50;;;;;;;25.20;100.00;95853.63;5005442;28;20057;-47
2021/08/16 03:26:05;;;;;;;14.45;8.13;;;;;;;25.33;100.00;95852.44;5007279;28;20080;-51
2021/08/16 03:28:35;;;;;;;12.27;7.85;;;;;;;25.27;100.00;95856.97;5011894;28;20081;-53
2021/08/16 03:31:03;;;;;;;13.93;8.48;;;;;;;24.28;100.00;95852.31;5009687;28;20065;-52
2021/08/16 03:33:32;;;;;;;9.43;7.88;;;;;;;24.43;100.00;95857.16;5011193;28;20070;-57
2021/08/16 03:36:00;;;;;;;10.88;8.32;;;;;;;24.44;100.00;95858.78;4996299;28;20077;-55
2021/08/16 03:38:29;;;;;;;16.13;7.90;;;;;;;24.52;100.00;95861.06;4990838;28;20073;-48
2021/08/16 03:40:57;;;;;;;15.18;8.45;;;;;;;24.39;100.00;95872.97;5003094;28;20174;-49
2021/08/16 03:43:26;;;;;;;15.15;8.60;;;;;;;24.55;100.00;95871.34;5013009;28;20104;-51
2021/08/16 03:45:55;;;;;;;15.45;8.57;;;;;;;24.38;100.00;95876.72;5007997;28;20065;-53
2021/08/16 03:48:24;;;;;;;14.80;8.60;;;;;;;24.77;100.00;95871.38;5005621;28;20056;-49
2021/08/16 03:50:53;;;;;;;15.82;8.85;;;;;;;24.89;100.00;95865.09;5006819;28;20122;-51
2021/08/16 03:53:21;;;;;;;15.38;8.93;;;;;;;24.56;100.00;95870.28;5006673;28;20570;-54
2021/08/16 03:55:49;;;;;;;13.20;9.00;;;;;;;24.45;100.00;95863.13;5014842;28;20069;-49
2021/08/16 03:58:18;;;;;;;13.98;9.27;;;;;;;24.24;100.00;95871.94;5010119;28;20524;-48
2021/08/16 04:00:46;;;;;;;12.60;9.25;;;;;;;24.60;100.00;95859.81;5008895;28;20073;-53
2021/08/16 04:03:16;;;;;;;14.02;9.43;;;;;;;24.31;100.00;95857.22;5007774;28;20068;-51
2021/08/16 04:05:45;;;;;;;19.40;9.95;;;;;;;24.35;100.00;95842.19;5000931;28;20064;-50
2021/08/16 04:08:14;;;;;;;16.23;9.77;;;;;;;25.02;100.00;95846.66;5001855;28;20066;-52
2021/08/16 04:10:42;;;;;;;17.80;10.07;;;;;;;24.58;100.00;95848.47;5011107;28;20081;-57
2021/08/16 04:13:11;;;;;;;16.05;10.18;;;;;;;24.86;100.00;95855.59;5008113;28;20073;-50
2021/08/16 04:15:39;;;;;;;17.83;9.80;;;;;;;24.34;100.00;95837.88;5004851;28;20073;-52
2021/08/16 04:18:08;;;;;;;14.18;10.00;;;;;;;24.96;100.00;95834.16;5003731;28;20061;-54
2021/08/16 04:20:38;;;;;;;14.43;9.23;;;;;;;24.39;100.00;95831.72;5006346;28;20070;-54
2021/08/16 04:23:07;;;;;;;14.02;9.40;;;;;;;25.21;100.00;95822.88;5009086;28;20077;-54
2021/08/16 04:25:35;;;;;;;16.17;10.32;;;;;;;25.14;100.00;95813.34;5012103;28;20081;-50
2021/08/16 04:28:04;;;;;;;15.80;10.18;;;;;;;24.74;100.00;95806.34;5010479;28;20065;-48
2021/08/16 04:30:33;;;;;;;16.55;10.27;;;;;;;25.24;100.00;95803.47;5011478;28;20073;-53
2021/08/16 04:33:01;;;;;;;16.65;10.05;;;;;;;25.26;100.00;95800.56;5010175;28;20062;-53
2021/08/16 04:35:29;;;;;;;15.30;9.80;;;;;;;25.32;100.00;95808.41;5012637;28;20080;-52
2021/08/16 04:37:59;;;;;;;15.57;10.02;;;;;;;25.44;100.00;95813.69;5008987;28;20092;-53
2021/08/16 04:40:28;;;;;;;15.45;10.45;;;;;;;24.69;100.00;95817.91;5013235;28;20445;-49
2021/08/16 04:42:58;;;;;;;17.15;10.30;;;;;;;24.74;100.00;95820.69;5012256;28;20548;-54
2021/08/16 04:45:26;;;;;;;16.48;11.18;;;;;;;25.10;100.00;95827.31;5011891;28;20278;-52
2021/08/16 04:47:55;;;;;;;17.70;10.65;;;;;;;25.16;100.00;95830.13;5005399;28;20062;-55
2021/08/16 04:50:23;;;;;;;15.00;10.60;;;;;;;24.84;100.00;95839.69;5007652;28;20069;-53
2021/08/16 04:52:52;;;;;;;16.13;10.73;;;;;;;24.61;100.00;95837.22;5010048;28;20084;-57
2021/08/16 04:55:22;;;;;;;50.78;44.60;;;;;;;24.46;100.00;95842.38;5011936;28;20790;-54
2021/08/16 04:57:50;;;;;;;17.08;11.07;;;;;;;25.29;100.00;95846.75;5009092;28;20279;-50
2021/08/16 05:00:24;;;;;;;16.48;11.27;;;;;;;25.37;100.00;95848.16;5016449;28;20524;-55
2021/08/16 05:02:53;;;;;;;14.85;10.90;;;;;;;25.18;100.00;95855.75;5017938;28;20432;-52
2021/08/16 05:05:23;;;;;;;16.67;11.50;;;;;;;25.28;100.00;95869.38;5010834;28;20088;-56
2021/08/16 05:07:53;;;;;;;16.00;10.93;;;;;;;24.95;100.00;95880.25;5013145;28;20058;-53
2021/08/16 05:10:26;;;;;;;18.85;10.52;;;;;;;25.21;100.00;95876.84;5033771;28;20067;-57
2021/08/16 05:12:56;;;;;;;18.98;11.48;;;;;;;25.17;100.00;95883.81;5016342;28;20077;-52
2021/08/16 05:15:25;;;;;;;18.65;11.90;;;;;;;24.96;100.00;95896.19;5015357;28;20589;-53
2021/08/16 05:17:53;;;;;;;17.75;11.02;;;;;;;24.79;100.00;95903.50;5016715;28;20065;-54
2021/08/16 05:20:23;;;;;;;18.58;11.27;;;;;;;25.26;100.00;95906.63;5007458;28;20074;-54
2021/08/16 05:22:51;;;;;;;16.55;10.50;;;;;;;24.47;100.00;95908.72;5016059;28;20511;-51
2021/08/16 05:25:20;;;;;;;21.33;10.88;;;;;;;24.73;100.00;95916.09;5009757;28;20598;-57
2021/08/16 05:27:50;;;;;;;18.23;10.73;;;;;;;24.23;100.00;95933.09;5032710;28;20512;-56
2021/08/16 05:30:19;;;;;;;15.10;10.57;;;;;;;24.62;100.00;95946.69;5013555;28;20053;-55
2021/08/16 05:32:48;;;;;;;15.30;10.90;;;;;;;24.66;100.00;95953.22;5005271;28;20065;-55
2021/08/16 05:35:17;;;;;;;15.20;10.93;;;;;;;24.66;100.00;95947.81;5003114;28;20034;-54
2021/08/16 05:37:46;;;;;;;16.58;10.57;;;;;;;24.66;100.00;95947.81;5016178;28;20093;-53
2021/08/16 05:40:15;;;;;;;18.52;11.20;;;;;;;24.98;100.00;95956.13;5013111;28;20065;-54
2021/08/16 05:42:43;;;;;;;14.60;10.95;;;;;;;25.46;100.00;95957.31;5009674;28;20038;-55
2021/08/16 05:45:14;;;;;;;18.38;10.85;;;;;;;25.32;100.00;95961.47;5018892;28;20288;-54
2021/08/16 05:47:43;;;;;;;18.00;10.90;;;;;;;25.15;100.00;95963.38;5021369;28;20053;-54
2021/08/16 05:50:11;;;;;;;18.80;11.93;;;;;;;25.23;100.00;95957.56;5011573;28;20075;-57
2021/08/16 05:52:40;;;;;;;16.02;10.68;;;;;;;25.50;100.00;95955.78;5013373;28;20042;-57
2021/08/16 05:55:09;;;;;;;18.05;10.77;;;;;;;25.31;100.00;95962.53;5012208;28;20076;-55
2021/08/16 05:57:38;;;;;;;15.23;9.95;;;;;;;25.87;100.00;95968.63;5007491;28;20065;-56
2021/08/16 06:00:07;;;;;;;16.08;10.15;;;;;;;25.70;100.00;95971.38;5012045;28;20073;-56
2021/08/16 06:02:37;;;;;;;18.30;10.35;;;;;;;25.88;100.00;95969.44;5010718;28;20138;-57
2021/08/16 06:05:08;;;;;;;13.20;9.50;;;;;;;25.41;100.00;95980.75;5020179;28;20134;-54
2021/08/16 06:07:36;;;;;;;15.05;9.13;;;;;;;25.59;100.00;95972.34;5010745;28;20081;-56
2021/08/16 06:10:05;;;;;;;16.38;9.02;;;;;;;25.60;100.00;95975.84;5015038;28;20065;-57
2021/08/16 06:12:34;;;;;;;11.30;7.50;;;;;;;24.90;100.00;95955.72;5016432;28;20476;-57
2021/08/16 06:15:03;;;;;;;10.63;8.15;;;;;;;25.77;100.00;95952.28;5011437;28;20042;-55
2021/08/16 06:17:33;;;;;;;10.90;7.90;;;;;;;25.87;100.00;95955.13;5010944;28;20062;-53
2021/08/16 06:20:03;;;;;;;13.20;8.15;;;;;;;25.32;100.00;95959.56;5013137;28;20081;-50
2021/08/16 06:22:33;;;;;;;;;;;;;;;25.31;100.00;95949.84;5014147;28;20516;-55
2021/08/16 06:25:02;;;;;;;8.38;5.93;;;;;;;25.18;100.00;95960.19;5009527;28;19964;-51
2021/08/16 06:27:30;;;;;;;9.57;5.88;;;;;;;25.23;100.00;95936.81;5010600;28;20074;-52
2021/08/16 06:29:59;;;;;;;10.88;6.25;;;;;;;26.37;100.00;95942.38;5014514;28;20452;-49
2021/08/16 06:32:28;;;;;;;8.23;5.53;;;;;;;26.21;100.00;95931.41;5007236;28;20080;-52
2021/08/16 06:34:57;;;;;;;9.40;6.45;;;;;;;26.42;100.00;95940.50;5011253;28;20080;-52
2021/08/16 06:37:27;;;;;;;9.52;5.40;;;;;;;26.21;100.00;95934.13;5017673;28;20520;-53
2021/08/16 06:39:55;;;;;;;6.88;5.30;;;;;;;25.34;100.00;95938.56;5019305;28;20062;-50
2021/08/16 06:42:24;;;;;;;7.38;5.60;;;;;;;25.71;100.00;95947.91;5011500;28;20072;-52
2021/08/16 06:44:55;;;;;;;8.52;5.20;;;;;;;25.36;100.00;95935.59;5008187;28;20077;-58
2021/08/16 06:47:23;;;;;;;8.50;5.00;;;;;;;25.56;100.00;95937.72;5006085;28;20074;-55
2021/08/16 06:49:52;;;;;;;9.27;5.10;;;;;;;26.09;100.00;95941.59;5013160;28;20582;-51
2021/08/16 06:52:20;;;;;;;7.25;4.88;;;;;;;26.08;100.00;95939.94;5013997;28;20082;-50
2021/08/16 06:54:50;;;;;;;6.43;5.10;;;;;;;26.35;100.00;95941.81;5011537;28;20074;-53
2021/08/16 06:57:18;;;;;;;7.45;4.90;;;;;;;26.30;100.00;95945.28;5010634;28;20072;-54
2021/08/16 06:59:47;;;;;;;8.95;5.25;;;;;;;26.55;100.00;95944.72;5008727;28;20076;-52
2021/08/16 07:02:15;;;;;;;7.97;5.18;;;;;;;26.36;100.00;95956.94;5001130;28;20073;-50
2021/08/16 07:04:44;;;;;;;9.07;5.13;;;;;;;26.50;100.00;95934.69;5013777;28;20082;-54
2021/08/16 07:07:12;;;;;;;9.32;5.38;;;;;;;26.86;100.00;95944.94;5016431;28;20748;-56
2021/08/16 07:09:41;;;;;;;8.43;5.15;;;;;;;26.19;100.00;95947.09;5004747;28;20073;-50
2021/08/16 07:12:11;;;;;;;7.82;5.45;;;;;;;26.57;100.00;95945.28;5006239;28;20065;-53
2021/08/16 07:14:46;;;;;;;7.03;5.13;;;;;;;26.76;100.00;95942.97;5007305;28;20069;-56
2021/08/16 07:17:18;;;;;;;6.18;4.60;;;;;;;26.30;100.00;95948.00;5004909;28;20064;-54
2021/08/16 07:19:46;;;;;;;8.13;4.82;;;;;;;26.12;100.00;95943.78;5011504;28;20496;-56
2021/08/16 07:22:16;;;;;;;6.78;4.35;;;;;;;26.27;100.00;95946.63;5015199;28;20311;-56
2021/08/16 07:24:45;;;;;;;7.28;4.55;;;;;;;26.78;100.00;95942.75;5012794;28;20069;-54
2021/08/16 07:27:14;;;;;;;5.00;4.43;;;;;;;26.90;100.00;95952.28;5012033;28;20065;-54
2021/08/16 07:29:49;;;;;;;7.40;4.82;;;;;;;26.56;100.00;95943.63;5011173;28;20477;-54
2021/08/16 07:32:18;;;;;;;5.82;3.88;;;;;;;26.26;100.00;95945.00;5015419;28;20129;-53
2021/08/16 07:34:46;;;;;;;6.95;4.47;;;;;;;26.46;100.00;95938.94;5012514;28;20454;-50
2021/08/16 07:37:15;;;;;;;7.00;4.10;;;;;;;26.68;100.00;95935.34;5013829;28;20474;-53
2021/08/16 07:39:43;;;;;;;6.50;4.60;;;;;;;27.31;100.00;95943.63;5026035;28;20533;-47
2021/08/16 07:42:12;;;;;;;7.30;4.65;;;;;;;27.68;100.00;95962.47;5011164;28;20489;-53
2021/08/16 07:44:41;;;;;;;6.88;4.60;;;;;;;26.93;100.00;95956.34;5008374;28;20454;-52
2021/08/16 07:47:16;;;;;;;8.52;4.68;;;;;;;27.76;100.00;95961.97;5009041;28;20481;-51
2021/08/16 07:49:44;;;;;;;6.57;4.35;;;;;;;27.97;100.00;95968.25;5035409;28;20463;-53
2021/08/16 07:52:13;;;;;;;6.32;4.20;;;;;;;27.97;100.00;95962.84;5009820;28;20569;-52
2021/08/16 07:54:42;;;;;;;5.95;4.30;;;;;;;27.24;100.00;95962.00;5006137;28;20070;-57
2021/08/16 07:57:11;;;;;;;7.50;4.47;;;;;;;27.53;100.00;95963.22;5010463;28;20457;-54
2021/08/16 07:59:41;;;;;;;6.38;4.32;;;;;;;27.91;100.00;95963.94;5009777;28;20062;-54
2021/08/16 08:02:09;;;;;;;8.13;4.80;;;;;;;28.30;100.00;95960.75;5010780;28;20084;-56
2021/08/16 08:04:38;;;;;;;8.82;4.22;;;;;;;27.28;100.00;95963.91;5007803;28;20096;-48
2021/08/16 08:07:06;;;;;;;6.40;4.53;;;;;;;27.39;100.00;95970.19;5009892;28;20076;-52
2021/08/16 08:09:35;;;;;;;7.45;4.53;;;;;;;27.99;100.00;95970.72;5006210;28;20084;-53
2021/08/16 08:12:04;;;;;;;7.88;4.90;;;;;;;27.59;100.00;95981.09;5010896;28;20080;-55
2021/08/16 08:14:33;;;;;;;7.15;5.05;;;;;;;27.92;100.00;95974.50;5011238;28;20073;-51
2021/08/16 08:17:03;;;;;;;9.93;5.20;;;;;;;28.48;100.00;95973.81;5018366;28;20081;-54
2021/08/16 08:19:32;;;;;;;5.95;4.80;;;;;;;28.38;100.00;95971.91;5016608;28;20080;-56
2021/08/16 08:22:00;;;;;;;8.77;5.05;;;;;;;29.15;100.00;95971.06;5009377;28;20072;-56
2021/08/16 08:24:29;;;;;;;7.82;5.25;;;;;;;27.87;100.00;95960.94;5018429;28;20061;-55
2021/08/16 08:26:58;;;;;;;8.45;4.80;;;;;;;28.42;100.00;95969.47;5009374;28;20045;-55
2021/08/16 08:29:27;;;;;;;7.63;5.07;;;;;;;28.09;100.00;95966.13;5006661;28;20484;-50
2021/08/16 08:31:55;;;;;;;9.73;6.32;;;;;;;27.71;100.00;95971.97;5012593;28;20088;-52
2021/08/16 08:34:25;;;;;;;6.88;5.60;;;;;;;27.68;100.00;95974.13;5018309;28;20476;-53
2021/08/16 08:36:53;;;;;;;8.57;5.57;;;;;;;27.81;100.00;95974.75;5006788;28;20066;-52
2021/08/16 08:39:22;;;;;;;10.75;5.97;;;;;;;28.34;100.00;95970.78;5011515;28;20062;-53
2021/08/16 08:41:51;;;;;;;8.80;5.65;;;;;;;27.77;100.00;95973.63;5008605;28;20088;-53
2021/08/16 08:44:21;;;;;;;9.18;5.80;;;;;;;29.11;100.00;95976.25;5022632;28;20065;-56
2021/08/16 08:46:50;;;;;;;8.23;6.15;;;;;;;28.46;100.00;95978.72;5006511;28;20500;-56
2021/08/16 08:49:19;;;;;;;8.93;5.80;;;;;;;28.10;100.00;95977.78;5015530;28;20120;-54
2021/08/16 08:51:49;;;;;;;9.13;5.57;;;;;;;27.84;100.00;95972.31;5013405;28;20065;-54
2021/08/16 08:54:19;;;;;;;8.98;5.90;;;;;;;28.17;100.00;95981.88;5008537;28;20069;-55
2021/08/16 08:57:07;;;;;;;;;;;;;;;28.83;100.00;95975.72;5007621;28;20096;-56
2021/08/16 08:59:36;;;;;;;9.32;5.88;;;;;;;28.95;100.00;95982.78;5012980;28;19968;-56
2021/08/16 09:02:07;;;;;;;9.82;5.07;;;;;;;28.85;100.00;95976.25;5019252;28;20616;-56
2021/08/16 09:04:35;;;;;;;8.82;5.38;;;;;;;29.25;100.00;95987.34;5012222;28;20081;-53
2021/08/16 09:07:05;;;;;;;9.48;5.72;;;;;;;29.04;100.00;95982.00;5013597;28;20092;-54
2021/08/16 09:09:34;;;;;;;;;;;;;;;29.12;100.00;95982.50;5009512;28;20065;-50
2021/08/16 09:12:03;;;;;;;9.75;5.70;;;;;;;28.36;100.00;95993.03;5020775;28;19961;-56
2021/08/16 09:14:32;;;;;;;9.75;6.00;;;;;;;27.91;100.00;95991.03;5011634;28;20043;-50
2021/08/16 09:17:01;;;;;;;9.48;6.43;;;;;;;27.02;100.00;95997.28;5016806;28;20100;-57
2021/08/16 09:19:30;;;;;;;12.30;7.57;;;;;;;26.19;100.00;96017.38;5013629;28;20073;-54
2021/08/16 09:22:03;;;;;;;12.82;7.93;;;;;;;25.83;100.00;96016.13;5014795;28;20084;-51
2021/08/16 09:24:34;;;;;;;13.50;8.35;;;;;;;25.62;100.00;96017.75;5011344;28;20061;-58
2021/08/16 09:27:04;;;;;;;15.02;7.68;;;;;;;25.32;100.00;96013.56;5018048;28;20065;-60
2021/08/16 09:29:36;;;;;;;15.05;8.85;;;;;;;25.21;100.00;96017.19;5018835;28;20526;-61
2021/08/16 09:32:06;;;;;;;13.20;9.40;;;;;;;25.13;100.00;96014.91;5008623;28;20037;-56
2021/08/16 09:34:36;;;;;;;12.75;9.48;;;;;;;25.37;100.00;96015.53;5014753;28;20069;-60
2021/08/16 09:37:15;;;;;;;15.63;10.50;;;;;;;25.34;100.00;96014.13;5010969;28;20449;-60
2021/08/16 09:39:45;;;;;;;15.88;10.98;;;;;;;25.31;100.00;96008.41;5011853;28;20063;-60
2021/08/16 09:42:14;;;;;;;15.88;9.68;;;;;;;25.37;100.00;95993.13;5014269;28;20057;-58
2021/08/16 09:44:49;;;;;;;15.55;10.00;;;;;;;25.70;100.00;95994.88;5018877;28;20069;-59
2021/08/16 09:47:18;;;;;;;20.83;10.40;;;;;;;26.17;100.00;95992.47;5017214;28;20444;-60
2021/08/16 09:49:56;;;;;;;13.45;10.13;;;;;;;26.65;100.00;95979.16;5010261;28;20073;-60
2021/08/16 09:52:29;;;;;;;11.60;8.97;;;;;;;26.66;100.00;95978.88;5005613;28;20065;-58
2021/08/16 09:55:00;;;;;;;13.38;10.13;;;;;;;27.74;100.00;95985.00;5014580;28;20062;-59
2021/08/16 09:57:31;;;;;;;11.88;8.23;;;;;;;27.57;100.00;95990.59;5038901;28;20065;-61
2021/08/16 10:00:00;;;;;;;11.52;9.18;;;;;;;27.80;100.00;95990.16;5006220;28;20069;-60
2021/08/16 10:02:29;;;;;;;10.18;8.32;;;;;;;27.47;100.00;96006.81;5008545;28;20066;-60
2021/08/16 10:04:59;;;;;;;12.90;8.90;;;;;;;27.07;100.00;96017.06;5021962;28;20449;-59
2021/08/16 10:07:39;;;;;;;14.50;9.15;;;;;;;26.16;100.00;96014.34;5013510;28;20077;-61
2021/08/16 10:10:11;;;;;;;12.63;8.98;;;;;;;26.28;100.00;96017.72;5005835;28;20065;-60
2021/08/16 10:12:41;;;;;;;12.35;9.60;;;;;;;26.80;100.00;96027.94;5009573;28;20061;-60
2021/08/16 10:15:10;;;;;;;;;;;;;;;27.31;100.00;96041.91;5018611;28;20077;-60
2021/08/16 10:17:41;;;;;;;13.90;9.30;;;;;;;26.87;100.00;96036.66;5009303;28;19975;-60
2021/08/16 10:20:11;;;;;;;13.13;9.65;;;;;;;27.38;100.00;96028.13;4999762;28;20452;-60
2021/08/16 10:22:41;;;;;;;13.82;8.73;;;;;;;27.16;100.00;96033.69;5013055;28;20092;-58
2021/08/16 10:25:12;;;;;;;12.93;9.27;;;;;;;26.66;100.00;96035.69;5014380;28;20064;-60
2021/08/16 10:27:41;;;;;;;11.82;9.13;;;;;;;26.66;100.00;96032.16;5008171;28;20066;-60
2021/08/16 10:30:12;;;;;;;14.60;10.25;;;;;;;25.77;100.00;96034.16;5003997;28;20081;-53
2021/08/16 10:32:40;;;;;;;;;;;;;;;26.73;100.00;96019.25;5016316;28;20069;-60
2021/08/16 10:35:13;;;;;;;14.07;9.98;;;;;;;28.35;100.00;96009.56;5009336;28;19976;-55
2021/08/16 10:37:42;;;;;;;14.73;10.65;;;;;;;28.96;100.00;96006.13;5008388;28;20081;-61
2021/08/16 10:40:18;;;;;;;14.15;10.45;;;;;;;29.37;100.00;96009.63;5005442;28;20084;-62
2021/08/16 10:42:47;;;;;;;12.93;10.40;;;;;;;29.77;100.00;96006.00;5016083;28;20081;-59
2021/08/16 10:45:25;;;;;;;12.98;10.20;;;;;;;30.10;100.00;96000.94;5004539;28;20091;-59
2021/08/16 10:48:04;;;;;;;;;;;;;;;29.47;100.00;96003.34;5011250;28;20053;-59
2021/08/16 10:50:33;;;;;;;15.07;10.18;;;;;;;28.55;100.00;96009.63;5009135;28;19976;-60
2021/08/16 10:53:03;;;;;;;14.73;9.65;;;;;;;27.45;100.00;96004.34;5013095;28;20445;-60
2021/08/16 10:55:35;;;;;;;12.70;9.95;;;;;;;27.49;100.00;95991.91;5012808;28;20096;-55
2021/08/16 10:58:07;;;;;;;11.48;10.05;;;;;;;27.41;100.00;95992.41;5010796;28;20088;-59
2021/08/16 11:00:36;;;;;;;12.35;10.07;;;;;;;27.41;100.00;95995.13;5017612;28;20169;-59
2021/08/16 11:03:04;;;;;;;13.43;10.88;;;;;;;26.56;100.00;96005.84;5007108;28;20065;-55
2021/08/16 11:05:35;;;;;;;12.77;11.02;;;;;;;26.32;100.00;96009.91;5009028;28;20468;-56
2021/08/16 11:08:04;;;;;;;17.05;11.85;;;;;;;26.31;100.00;96005.59;5008272;28;20093;-56
2021/08/16 11:10:42;;;;;;;15.82;12.68;;;;;;;26.86;100.00;95986.34;5019420;28;20092;-59
2021/08/16 11:13:13;;;;;;;18.92;11.88;;;;;;;27.16;100.00;95979.53;5009883;28;20440;-59
2021/08/16 11:15:42;;;;;;;16.00;11.90;;;;;;;27.22;100.00;95970.38;5013330;28;20068;-60
2021/08/16 11:18:12;;;;;;;13.70;11.75;;;;;;;28.33;100.00;95963.75;5013353;28;20539;-59
2021/08/16 11:20:41;;;;;;;;;;;;;;;29.01;100.00;95957.25;5011438;28;20045;-60
2021/08/16 11:23:10;;;;;;;13.52;10.35;;;;;;;27.80;100.00;95964.97;5007225;28;19964;-57
2021/08/16 11:25:49;;;;;;;15.70;11.10;;;;;;;28.82;100.00;95965.13;5013358;28;20077;-58
2021/08/16 11:28:21;;;;;;;12.95;11.05;;;;;;;28.92;100.00;95964.31;5012808;28;21436;-54
2021/08/16 11:30:49;;;;;;;13.18;10.23;;;;;;;28.68;100.00;95966.78;5013337;28;20069;-58